TimeEST,TemperatureF,Dew PointF,Humidity,Sea Level PressureIn,VisibilityMPH,Wind Direction,Wind SpeedMPH,Gust SpeedMPH,PrecipitationIn,Events,Conditions,WindDirDegrees,DateUTC
12:56 AM,18.0,10.0,71,29.67,-9999.0,NW,8.1,-,N/A,,Unknown,310,2012-11-26 05:56:00
1:56 AM,18.0,9.0,68,29.69,-9999.0,NW,11.5,23.0,N/A,,Unknown,310,2012-11-26 06:56:00
2:56 AM,17.1,10.0,74,29.71,-9999.0,NW,8.1,-,N/A,,Unknown,310,2012-11-26 07:56:00
3:56 AM,17.1,10.0,74,29.72,-9999.0,WNW,8.1,-,N/A,,Unknown,300,2012-11-26 08:56:00
4:56 AM,16.0,10.0,77,29.74,-9999.0,NW,5.8,-,N/A,,Unknown,310,2012-11-26 09:56:00
5:56 AM,17.1,10.0,74,29.75,-9999.0,WNW,9.2,-,N/A,,Unknown,300,2012-11-26 10:56:00
6:56 AM,17.1,9.0,71,29.78,-9999.0,Variable,6.9,-,N/A,,Unknown,0,2012-11-26 11:56:00
7:56 AM,19.0,10.0,68,29.81,-9999.0,NW,9.2,19.6,N/A,,Unknown,310,2012-11-26 12:56:00
8:56 AM,21.0,10.0,63,29.82,-9999.0,WNW,8.1,18.4,N/A,,Unknown,300,2012-11-26 13:56:00
9:56 AM,24.1,9.0,53,29.84,-9999.0,Variable,4.6,20.7,N/A,,Unknown,0,2012-11-26 14:56:00
10:56 AM,27.0,9.0,47,29.84,-9999.0,WNW,5.8,-,N/A,,Unknown,300,2012-11-26 15:56:00
11:56 AM,28.0,7.0,41,29.85,-9999.0,NW,8.1,-,N/A,,Unknown,310,2012-11-26 16:56:00
12:56 PM,28.0,8.1,43,29.87,-9999.0,Variable,4.6,-,N/A,,Unknown,0,2012-11-26 17:56:00
1:56 PM,28.0,9.0,45,29.90,-9999.0,Variable,6.9,-,N/A,,Unknown,0,2012-11-26 18:56:00
2:56 PM,25.0,8.1,49,29.94,-9999.0,NW,9.2,18.4,N/A,,Unknown,310,2012-11-26 19:56:00
3:56 PM,23.0,10.0,58,29.99,-9999.0,Variable,6.9,-,N/A,,Unknown,0,2012-11-26 20:56:00
4:56 PM,21.9,10.9,63,30.01,-9999.0,NW,12.7,28.8,N/A,,Unknown,310,2012-11-26 21:56:00
5:56 PM,19.9,10.9,68,30.06,-9999.0,NW,10.4,20.7,N/A,,Unknown,310,2012-11-26 22:56:00
6:56 PM,19.0,10.0,68,30.10,-9999.0,WNW,8.1,-,N/A,,Unknown,300,2012-11-26 23:56:00
7:56 PM,19.0,10.9,71,30.12,-9999.0,WNW,8.1,-,N/A,,Unknown,300,2012-11-27 00:56:00
8:56 PM,19.0,10.9,71,30.11,-9999.0,NW,10.4,18.4,N/A,,Unknown,310,2012-11-27 01:56:00
9:56 PM,19.0,12.9,77,30.12,-9999.0,WNW,8.1,-,N/A,,Unknown,300,2012-11-27 02:56:00
10:56 PM,19.0,12.0,74,30.15,-9999.0,Variable,5.8,-,N/A,,Unknown,0,2012-11-27 03:56:00
11:56 PM,18.0,10.9,74,30.16,-9999.0,NW,4.6,-,N/A,,Unknown,320,2012-11-27 04:56:00